Terminal Aerodrome Forecast
Issued by NWS Pueblo, CO

Home | Current Version | Previous Version | Text Only | Print | Product List | Glossary On
Versions: 1 2 3 4 5 6 7 8 9 10 11 12 13 14 15 16 17 18 19 20 21 22 23 24 25 26 27 28 29 30
000
FTUS45 KPUB 171138
TAFCOS
TAF
KCOS 171138Z 1712/1812 01008KT P6SM SCT100 SCT150
     FM171500 VRB06KT P6SM SCT100 BKN150
     FM171800 19009KT P6SM SCT100 BKN150
     FM180300 VRB05KT P6SM SCT100=

USA.gov is the U.S. government's official web portal to all federal, state and local government web resources and services.